sensor_id;sensor_type;location;lat;lon;timestamp;pressure;altitude;pressure_sealevel;temperature;humidity
66381;BME280;53177;52.648;1.214;2022-08-03T00:01:48;100695.06;;;21.34;83.39
66381;BME280;53177;52.648;1.214;2022-08-03T00:04:14;100694.84;;;21.31;83.43
66381;BME280;53177;52.648;1.214;2022-08-03T00:06:39;100696.66;;;21.35;83.57
66381;BME280;53177;52.648;1.214;2022-08-03T00:09:05;100702.25;;;21.22;83.99
66381;BME280;53177;52.648;1.214;2022-08-03T00:11:31;100690.81;;;21.28;83.73
66381;BME280;53177;52.648;1.214;2022-08-03T00:13:56;100694.06;;;21.30;83.49
66381;BME280;53177;52.648;1.214;2022-08-03T00:16:21;100688.88;;;21.20;84.04
66381;BME280;53177;52.648;1.214;2022-08-03T00:18:49;100694.06;;;21.30;83.39
66381;BME280;53177;52.648;1.214;2022-08-03T00:21:14;100691.44;;;21.25;83.40
66381;BME280;53177;52.648;1.214;2022-08-03T00:23:40;100690.16;;;21.14;84.20
66381;BME280;53177;52.648;1.214;2022-08-03T00:26:05;100695.47;;;21.19;83.99
66381;BME280;53177;52.648;1.214;2022-08-03T00:28:31;100693.38;;;21.16;84.23
66381;BME280;53177;52.648;1.214;2022-08-03T00:30:56;100694.19;;;21.08;84.34
66381;BME280;53177;52.648;1.214;2022-08-03T00:33:22;100695.00;;;21.17;83.91
66381;BME280;53177;52.648;1.214;2022-08-03T00:35:47;100687.44;;;21.14;84.15
66381;BME280;53177;52.648;1.214;2022-08-03T00:38:12;100698.19;;;21.10;84.02
66381;BME280;53177;52.648;1.214;2022-08-03T00:40:38;100699.50;;;21.13;83.61
66381;BME280;53177;52.648;1.214;2022-08-03T00:43:05;100692.28;;;21.17;83.33
66381;BME280;53177;52.648;1.214;2022-08-03T00:45:41;100686.94;;;20.94;84.75
66381;BME280;53177;52.648;1.214;2022-08-03T00:48:07;100683.22;;;20.90;84.74
66381;BME280;53177;52.648;1.214;2022-08-03T00:50:35;100680.97;;;20.92;84.67
66381;BME280;53177;52.648;1.214;2022-08-03T00:53:02;100684.50;;;20.93;84.61
66381;BME280;53177;52.648;1.214;2022-08-03T00:55:29;100680.00;;;20.97;84.36
66381;BME280;53177;52.648;1.214;2022-08-03T00:57:55;100682.25;;;20.86;85.15
66381;BME280;53177;52.648;1.214;2022-08-03T01:00:23;100681.75;;;20.84;85.27
66381;BME280;53177;52.648;1.214;2022-08-03T01:02:50;100684.00;;;20.82;85.09
66381;BME280;53177;52.648;1.214;2022-08-03T01:05:16;100677.72;;;20.73;85.63
66381;BME280;53177;52.648;1.214;2022-08-03T01:13:17;100678.03;;;20.80;85.09
66381;BME280;53177;52.648;1.214;2022-08-03T01:16:14;100673.72;;;20.79;85.20
66381;BME280;53177;52.648;1.214;2022-08-03T01:21:47;100671.47;;;20.81;84.88
66381;BME280;53177;52.648;1.214;2022-08-03T01:27:33;100667.88;;;20.55;86.55
66381;BME280;53177;52.648;1.214;2022-08-03T01:30:06;100673.94;;;20.52;86.57
66381;BME280;53177;52.648;1.214;2022-08-03T01:32:40;100668.84;;;20.59;85.78
66381;BME280;53177;52.648;1.214;2022-08-03T01:35:16;100670.84;;;20.44;86.70
66381;BME280;53177;52.648;1.214;2022-08-03T01:37:49;100672.38;;;20.28;87.93
66381;BME280;53177;52.648;1.214;2022-08-03T01:40:19;100677.69;;;20.33;87.54
66381;BME280;53177;52.648;1.214;2022-08-03T01:42:46;100676.75;;;20.38;87.06
66381;BME280;53177;52.648;1.214;2022-08-03T01:45:13;100672.09;;;20.38;87.29
66381;BME280;53177;52.648;1.214;2022-08-03T01:47:43;100673.38;;;20.32;87.41
66381;BME280;53177;52.648;1.214;2022-08-03T01:50:11;100669.81;;;20.23;88.04
66381;BME280;53177;52.648;1.214;2022-08-03T01:52:39;100667.41;;;20.30;87.46
66381;BME280;53177;52.648;1.214;2022-08-03T01:55:08;100665.81;;;20.29;87.41
66381;BME280;53177;52.648;1.214;2022-08-03T01:57:35;100659.97;;;20.22;87.98
66381;BME280;53177;52.648;1.214;2022-08-03T02:00:03;100665.09;;;20.15;88.12
66381;BME280;53177;52.648;1.214;2022-08-03T02:02:31;100651.06;;;19.99;89.19
66381;BME280;53177;52.648;1.214;2022-08-03T02:04:59;100653.03;;;20.07;89.06
66381;BME280;53177;52.648;1.214;2022-08-03T02:07:25;100643.91;;;20.12;88.01
66381;BME280;53177;52.648;1.214;2022-08-03T02:09:53;100653.34;;;20.06;88.96
66381;BME280;53177;52.648;1.214;2022-08-03T02:12:21;100652.22;;;20.07;88.99
66381;BME280;53177;52.648;1.214;2022-08-03T02:14:48;100655.34;;;19.91;89.54
66381;BME280;53177;52.648;1.214;2022-08-03T02:17:15;100661.41;;;19.88;89.32
66381;BME280;53177;52.648;1.214;2022-08-03T02:19:42;100654.84;;;19.89;89.89
66381;BME280;53177;52.648;1.214;2022-08-03T02:22:09;100650.66;;;19.83;90.29
66381;BME280;53177;52.648;1.214;2022-08-03T02:24:36;100650.00;;;19.86;89.66
66381;BME280;53177;52.648;1.214;2022-08-03T02:27:04;100649.47;;;19.76;90.65
66381;BME280;53177;52.648;1.214;2022-08-03T02:29:33;100644.97;;;19.71;90.92
66381;BME280;53177;52.648;1.214;2022-08-03T02:32:02;100647.06;;;19.74;90.76
66381;BME280;53177;52.648;1.214;2022-08-03T02:34:30;100641.38;;;19.62;91.50
66381;BME280;53177;52.648;1.214;2022-08-03T02:36:58;100641.25;;;19.67;91.04
66381;BME280;53177;52.648;1.214;2022-08-03T02:39:25;100647.19;;;19.69;91.20
66381;BME280;53177;52.648;1.214;2022-08-03T02:41:55;100646.88;;;19.71;90.86
66381;BME280;53177;52.648;1.214;2022-08-03T02:44:28;100646.81;;;19.62;91.52
66381;BME280;53177;52.648;1.214;2022-08-03T02:46:56;100652.19;;;19.76;90.21
66381;BME280;53177;52.648;1.214;2022-08-03T02:49:23;100647.81;;;19.66;90.08
66381;BME280;53177;52.648;1.214;2022-08-03T02:51:51;100648.00;;;19.69;90.61
66381;BME280;53177;52.648;1.214;2022-08-03T02:54:18;100645.47;;;19.59;91.29
66381;BME280;53177;52.648;1.214;2022-08-03T02:56:47;100650.66;;;19.61;90.74
66381;BME280;53177;52.648;1.214;2022-08-03T02:59:13;100647.72;;;19.57;91.55
66381;BME280;53177;52.648;1.214;2022-08-03T03:01:39;100648.94;;;19.65;90.70
66381;BME280;53177;52.648;1.214;2022-08-03T03:04:04;100651.72;;;19.60;91.08
66381;BME280;53177;52.648;1.214;2022-08-03T03:06:30;100642.69;;;19.51;91.83
66381;BME280;53177;52.648;1.214;2022-08-03T03:08:57;100646.59;;;19.36;92.98
66381;BME280;53177;52.648;1.214;2022-08-03T03:11:24;100645.84;;;19.44;92.39
66381;BME280;53177;52.648;1.214;2022-08-03T03:13:50;100644.09;;;19.62;90.35
66381;BME280;53177;52.648;1.214;2022-08-03T03:16:16;100647.53;;;19.54;91.33
66381;BME280;53177;52.648;1.214;2022-08-03T03:18:44;100631.91;;;19.45;92.00
66381;BME280;53177;52.648;1.214;2022-08-03T03:21:10;100633.56;;;19.33;92.99
66381;BME280;53177;52.648;1.214;2022-08-03T03:23:37;100634.50;;;19.28;93.52
66381;BME280;53177;52.648;1.214;2022-08-03T03:26:04;100626.25;;;19.33;92.72
66381;BME280;53177;52.648;1.214;2022-08-03T03:28:31;100638.41;;;19.36;92.54
66381;BME280;53177;52.648;1.214;2022-08-03T03:30:58;100637.41;;;19.32;93.39
66381;BME280;53177;52.648;1.214;2022-08-03T03:33:24;100630.63;;;19.21;93.65
66381;BME280;53177;52.648;1.214;2022-08-03T03:35:50;100630.78;;;19.24;93.25
66381;BME280;53177;52.648;1.214;2022-08-03T03:38:16;100631.78;;;19.28;92.33
66381;BME280;53177;52.648;1.214;2022-08-03T03:40:42;100638.66;;;19.26;93.04
66381;BME280;53177;52.648;1.214;2022-08-03T03:43:11;100638.94;;;19.24;93.17
66381;BME280;53177;52.648;1.214;2022-08-03T03:45:37;100641.19;;;19.22;93.25
66381;BME280;53177;52.648;1.214;2022-08-03T03:48:05;100645.91;;;19.30;92.79
66381;BME280;53177;52.648;1.214;2022-08-03T03:50:32;100644.41;;;19.24;93.39
66381;BME280;53177;52.648;1.214;2022-08-03T03:53:01;100635.94;;;19.26;92.70
66381;BME280;53177;52.648;1.214;2022-08-03T03:55:30;100630.97;;;19.28;92.32
66381;BME280;53177;52.648;1.214;2022-08-03T03:57:58;100632.41;;;19.25;93.03
66381;BME280;53177;52.648;1.214;2022-08-03T04:00:25;100639.72;;;19.16;93.83
66381;BME280;53177;52.648;1.214;2022-08-03T04:02:50;100634.44;;;19.19;93.33
66381;BME280;53177;52.648;1.214;2022-08-03T04:05:16;100639.91;;;19.06;94.42
66381;BME280;53177;52.648;1.214;2022-08-03T04:08:03;100635.59;;;19.05;94.24
66381;BME280;53177;52.648;1.214;2022-08-03T04:13:35;100649.91;;;18.97;94.72
66381;BME280;53177;52.648;1.214;2022-08-03T04:16:03;100645.09;;;18.93;95.17
66381;BME280;53177;52.648;1.214;2022-08-03T04:18:31;100648.84;;;18.98;94.86
66381;BME280;53177;52.648;1.214;2022-08-03T04:21:05;100654.88;;;18.94;95.35
66381;BME280;53177;52.648;1.214;2022-08-03T04:23:38;100653.28;;;18.93;95.16
66381;BME280;53177;52.648;1.214;2022-08-03T04:26:06;100659.19;;;18.96;94.96
66381;BME280;53177;52.648;1.214;2022-08-03T04:28:34;100667.56;;;18.99;94.81
66381;BME280;53177;52.648;1.214;2022-08-03T04:31:03;100662.44;;;18.98;95.09
66381;BME280;53177;52.648;1.214;2022-08-03T04:33:31;100665.75;;;18.94;95.01
66381;BME280;53177;52.648;1.214;2022-08-03T04:35:59;100663.34;;;18.93;95.38
66381;BME280;53177;52.648;1.214;2022-08-03T04:38:25;100673.53;;;18.87;95.69
66381;BME280;53177;52.648;1.214;2022-08-03T04:40:54;100666.16;;;18.88;95.74
66381;BME280;53177;52.648;1.214;2022-08-03T04:43:21;100659.31;;;18.90;95.67
66381;BME280;53177;52.648;1.214;2022-08-03T04:45:48;100665.25;;;18.92;95.62
66381;BME280;53177;52.648;1.214;2022-08-03T04:48:14;100670.59;;;18.98;94.90
66381;BME280;53177;52.648;1.214;2022-08-03T04:50:40;100657.72;;;18.89;95.92
66381;BME280;53177;52.648;1.214;2022-08-03T04:53:06;100661.94;;;18.96;95.14
66381;BME280;53177;52.648;1.214;2022-08-03T04:55:33;100663.03;;;18.94;95.25
66381;BME280;53177;52.648;1.214;2022-08-03T04:57:59;100662.53;;;18.92;95.38
66381;BME280;53177;52.648;1.214;2022-08-03T05:00:26;100674.53;;;18.91;95.76
66381;BME280;53177;52.648;1.214;2022-08-03T05:02:51;100668.06;;;19.01;93.98
66381;BME280;53177;52.648;1.214;2022-08-03T05:05:18;100671.97;;;19.09;93.14
66381;BME280;53177;52.648;1.214;2022-08-03T05:07:44;100678.03;;;19.06;94.41
66381;BME280;53177;52.648;1.214;2022-08-03T05:10:11;100679.03;;;19.10;94.44
66381;BME280;53177;52.648;1.214;2022-08-03T05:12:38;100689.63;;;19.11;94.08
66381;BME280;53177;52.648;1.214;2022-08-03T05:15:05;100686.13;;;19.11;94.17
66381;BME280;53177;52.648;1.214;2022-08-03T05:17:31;100689.22;;;19.04;94.55
66381;BME280;53177;52.648;1.214;2022-08-03T05:19:58;100695.38;;;19.10;93.91
66381;BME280;53177;52.648;1.214;2022-08-03T05:22:24;100687.31;;;19.05;94.71
66381;BME280;53177;52.648;1.214;2022-08-03T05:24:51;100691.66;;;19.06;94.76
66381;BME280;53177;52.648;1.214;2022-08-03T05:27:17;100686.72;;;19.08;94.94
66381;BME280;53177;52.648;1.214;2022-08-03T05:29:46;100687.19;;;19.10;93.57
66381;BME280;53177;52.648;1.214;2022-08-03T05:32:12;100689.56;;;19.03;95.15
66381;BME280;53177;52.648;1.214;2022-08-03T05:34:37;100683.78;;;19.04;94.88
66381;BME280;53177;52.648;1.214;2022-08-03T05:37:03;100691.75;;;19.01;95.27
66381;BME280;53177;52.648;1.214;2022-08-03T05:39:29;100691.28;;;18.99;95.50
66381;BME280;53177;52.648;1.214;2022-08-03T05:41:54;100696.59;;;19.04;95.03
66381;BME280;53177;52.648;1.214;2022-08-03T05:44:19;100702.38;;;19.02;95.20
66381;BME280;53177;52.648;1.214;2022-08-03T05:46:45;100705.25;;;19.06;95.00
66381;BME280;53177;52.648;1.214;2022-08-03T05:49:11;100704.25;;;19.02;95.48
66381;BME280;53177;52.648;1.214;2022-08-03T05:51:36;100704.25;;;19.02;95.42
66381;BME280;53177;52.648;1.214;2022-08-03T05:54:02;100702.38;;;19.02;95.46
66381;BME280;53177;52.648;1.214;2022-08-03T05:56:27;100699.22;;;19.09;94.94
66381;BME280;53177;52.648;1.214;2022-08-03T05:58:52;100700.41;;;19.16;94.23
66381;BME280;53177;52.648;1.214;2022-08-03T06:01:19;100698.97;;;19.19;94.25
66381;BME280;53177;52.648;1.214;2022-08-03T06:03:49;100699.28;;;19.17;94.24
66381;BME280;53177;52.648;1.214;2022-08-03T06:06:14;100698.97;;;19.19;94.39
66381;BME280;53177;52.648;1.214;2022-08-03T06:08:41;100706.44;;;19.27;93.49
66381;BME280;53177;52.648;1.214;2022-08-03T06:11:07;100701.72;;;19.19;94.12
66381;BME280;53177;52.648;1.214;2022-08-03T06:13:33;100703.63;;;19.18;94.30
66381;BME280;53177;52.648;1.214;2022-08-03T06:15:58;100711.19;;;19.22;93.66
66381;BME280;53177;52.648;1.214;2022-08-03T06:18:24;100699.38;;;19.26;93.60
66381;BME280;53177;52.648;1.214;2022-08-03T06:20:50;100706.09;;;19.42;91.96
66381;BME280;53177;52.648;1.214;2022-08-03T06:23:16;100706.28;;;19.46;92.35
66381;BME280;53177;52.648;1.214;2022-08-03T06:25:41;100707.41;;;19.45;91.58
66381;BME280;53177;52.648;1.214;2022-08-03T06:28:07;100709.38;;;19.53;92.21
66381;BME280;53177;52.648;1.214;2022-08-03T06:30:32;100711.19;;;19.58;91.26
66381;BME280;53177;52.648;1.214;2022-08-03T06:32:58;100718.41;;;19.76;89.56
66381;BME280;53177;52.648;1.214;2022-08-03T06:35:23;100719.28;;;19.85;90.33
66381;BME280;53177;52.648;1.214;2022-08-03T06:37:49;100705.03;;;19.88;90.03
66381;BME280;53177;52.648;1.214;2022-08-03T06:40:21;100720.78;;;19.91;89.40
66381;BME280;53177;52.648;1.214;2022-08-03T06:43:01;100711.16;;;19.94;88.42
66381;BME280;53177;52.648;1.214;2022-08-03T06:45:28;100720.06;;;20.08;88.51
66381;BME280;53177;52.648;1.214;2022-08-03T06:48:07;100723.66;;;20.17;88.36
66381;BME280;53177;52.648;1.214;2022-08-03T06:50:34;100711.31;;;20.20;87.77
66381;BME280;53177;52.648;1.214;2022-08-03T06:53:00;100710.88;;;20.27;87.85
66381;BME280;53177;52.648;1.214;2022-08-03T06:55:26;100708.88;;;20.41;86.87
66381;BME280;53177;52.648;1.214;2022-08-03T06:57:52;100711.53;;;20.55;86.24
66381;BME280;53177;52.648;1.214;2022-08-03T07:00:18;100710.88;;;20.58;85.72
66381;BME280;53177;52.648;1.214;2022-08-03T07:02:44;100709.81;;;20.67;85.05
66381;BME280;53177;52.648;1.214;2022-08-03T07:05:10;100722.66;;;20.76;82.26
66381;BME280;53177;52.648;1.214;2022-08-03T07:07:36;100714.88;;;20.91;83.26
66381;BME280;53177;52.648;1.214;2022-08-03T07:10:02;100717.28;;;21.02;81.31
66381;BME280;53177;52.648;1.214;2022-08-03T07:12:29;100729.84;;;21.20;81.47
66381;BME280;53177;52.648;1.214;2022-08-03T07:14:55;100722.63;;;21.24;82.04
66381;BME280;53177;52.648;1.214;2022-08-03T07:17:21;100718.31;;;21.23;80.64
66381;BME280;53177;52.648;1.214;2022-08-03T07:19:47;100731.34;;;21.26;80.99
66381;BME280;53177;52.648;1.214;2022-08-03T07:22:12;100735.53;;;21.32;79.58
66381;BME280;53177;52.648;1.214;2022-08-03T07:24:38;100730.66;;;21.29;79.70
66381;BME280;53177;52.648;1.214;2022-08-03T07:27:03;100734.59;;;21.45;79.13
66381;BME280;53177;52.648;1.214;2022-08-03T07:29:29;100723.03;;;21.66;78.52
66381;BME280;53177;52.648;1.214;2022-08-03T07:31:54;100729.13;;;21.63;78.52
66381;BME280;53177;52.648;1.214;2022-08-03T07:34:19;100726.38;;;21.45;78.42
66381;BME280;53177;52.648;1.214;2022-08-03T07:36:45;100733.78;;;21.54;77.35
66381;BME280;53177;52.648;1.214;2022-08-03T07:39:10;100734.28;;;21.64;77.04
66381;BME280;53177;52.648;1.214;2022-08-03T07:41:36;100732.84;;;21.76;76.48
66381;BME280;53177;52.648;1.214;2022-08-03T07:44:01;100738.28;;;21.84;75.47
66381;BME280;53177;52.648;1.214;2022-08-03T07:46:27;100741.31;;;21.91;75.95
66381;BME280;53177;52.648;1.214;2022-08-03T07:48:52;100734.28;;;21.73;75.92
66381;BME280;53177;52.648;1.214;2022-08-03T07:51:18;100735.09;;;21.48;76.58
66381;BME280;53177;52.648;1.214;2022-08-03T07:53:43;100728.31;;;21.54;76.38
66381;BME280;53177;52.648;1.214;2022-08-03T07:56:08;100730.25;;;21.62;76.92
66381;BME280;53177;52.648;1.214;2022-08-03T07:58:35;100726.22;;;21.68;75.63
66381;BME280;53177;52.648;1.214;2022-08-03T08:01:00;100734.44;;;21.77;75.68
66381;BME280;53177;52.648;1.214;2022-08-03T08:03:26;100743.13;;;21.70;76.06
66381;BME280;53177;52.648;1.214;2022-08-03T08:05:51;100739.91;;;21.77;76.04
66381;BME280;53177;52.648;1.214;2022-08-03T08:08:18;100740.06;;;21.54;76.92
66381;BME280;53177;52.648;1.214;2022-08-03T08:10:44;100742.47;;;21.64;76.86
66381;BME280;53177;52.648;1.214;2022-08-03T08:13:09;100736.53;;;21.71;76.63
66381;BME280;53177;52.648;1.214;2022-08-03T08:15:35;100740.06;;;21.80;76.18
66381;BME280;53177;52.648;1.214;2022-08-03T08:18:00;100739.72;;;21.73;76.68
66381;BME280;53177;52.648;1.214;2022-08-03T08:20:29;100746.81;;;21.74;76.93
66381;BME280;53177;52.648;1.214;2022-08-03T08:22:56;100742.97;;;21.92;76.14
66381;BME280;53177;52.648;1.214;2022-08-03T08:25:22;100744.22;;;21.69;76.58
66381;BME280;53177;52.648;1.214;2022-08-03T08:27:48;100748.72;;;21.56;76.75
66381;BME280;53177;52.648;1.214;2022-08-03T08:30:16;100746.66;;;21.53;77.26
66381;BME280;53177;52.648;1.214;2022-08-03T08:32:47;100745.38;;;21.77;77.24
66381;BME280;53177;52.648;1.214;2022-08-03T08:35:13;100746.78;;;21.91;76.43
66381;BME280;53177;52.648;1.214;2022-08-03T08:37:39;100747.28;;;22.02;75.39
66381;BME280;53177;52.648;1.214;2022-08-03T08:40:06;100740.22;;;21.92;74.72
66381;BME280;53177;52.648;1.214;2022-08-03T08:42:32;100752.75;;;22.02;74.47
66381;BME280;53177;52.648;1.214;2022-08-03T08:44:59;100744.41;;;21.90;73.87
66381;BME280;53177;52.648;1.214;2022-08-03T08:47:28;100743.75;;;21.93;74.07
66381;BME280;53177;52.648;1.214;2022-08-03T08:49:56;100746.00;;;21.82;74.33
66381;BME280;53177;52.648;1.214;2022-08-03T08:52:28;100753.75;;;22.15;73.46
66381;BME280;53177;52.648;1.214;2022-08-03T08:54:58;100745.00;;;22.22;73.44
66381;BME280;53177;52.648;1.214;2022-08-03T08:57:33;100730.72;;;22.63;71.82
66381;BME280;53177;52.648;1.214;2022-08-03T09:00:00;100727.91;;;22.80;70.87
66381;BME280;53177;52.648;1.214;2022-08-03T09:02:28;100733.63;;;23.26;69.63
66381;BME280;53177;52.648;1.214;2022-08-03T09:04:54;100728.63;;;23.28;68.96
66381;BME280;53177;52.648;1.214;2022-08-03T09:07:20;100743.88;;;23.37;68.08
66381;BME280;53177;52.648;1.214;2022-08-03T09:09:45;100738.78;;;23.48;67.94
66381;BME280;53177;52.648;1.214;2022-08-03T09:12:11;100740.53;;;23.74;66.52
66381;BME280;53177;52.648;1.214;2022-08-03T09:14:36;100747.47;;;23.92;65.70
66381;BME280;53177;52.648;1.214;2022-08-03T09:17:02;100744.38;;;24.27;65.61
66381;BME280;53177;52.648;1.214;2022-08-03T09:19:32;100747.59;;;23.95;65.42
66381;BME280;53177;52.648;1.214;2022-08-03T09:22:15;100745.00;;;23.57;65.89
66381;BME280;53177;52.648;1.214;2022-08-03T09:27:19;100743.16;;;23.49;67.04
66381;BME280;53177;52.648;1.214;2022-08-03T09:29:49;100753.03;;;23.41;67.78
66381;BME280;53177;52.648;1.214;2022-08-03T09:32:18;100741.13;;;23.79;65.74
66381;BME280;53177;52.648;1.214;2022-08-03T09:34:46;100740.44;;;23.61;66.99
66381;BME280;53177;52.648;1.214;2022-08-03T09:37:18;100747.31;;;23.76;66.91
66381;BME280;53177;52.648;1.214;2022-08-03T09:39:44;100735.75;;;24.04;65.17
66381;BME280;53177;52.648;1.214;2022-08-03T09:42:14;100740.69;;;24.43;63.51
66381;BME280;53177;52.648;1.214;2022-08-03T09:44:46;100732.13;;;24.69;62.49
66381;BME280;53177;52.648;1.214;2022-08-03T09:47:13;100736.69;;;24.90;62.42
66381;BME280;53177;52.648;1.214;2022-08-03T09:49:41;100741.00;;;25.40;60.62
66381;BME280;53177;52.648;1.214;2022-08-03T09:52:15;100733.63;;;25.16;60.31
66381;BME280;53177;52.648;1.214;2022-08-03T09:54:42;100738.88;;;24.96;61.09
66381;BME280;53177;52.648;1.214;2022-08-03T09:57:10;100743.22;;;24.85;63.42
66381;BME280;53177;52.648;1.214;2022-08-03T09:59:44;100737.66;;;25.59;62.60
66381;BME280;53177;52.648;1.214;2022-08-03T10:02:23;100728.66;;;25.74;59.39
66381;BME280;53177;52.648;1.214;2022-08-03T10:04:49;100729.94;;;25.36;60.33
66381;BME280;53177;52.648;1.214;2022-08-03T10:07:19;100733.50;;;24.88;62.34
66381;BME280;53177;52.648;1.214;2022-08-03T10:09:59;100722.41;;;24.96;63.00
66381;BME280;53177;52.648;1.214;2022-08-03T10:12:26;100716.56;;;25.63;60.08
66381;BME280;53177;52.648;1.214;2022-08-03T10:14:52;100723.03;;;25.70;59.34
66381;BME280;53177;52.648;1.214;2022-08-03T10:17:18;100724.72;;;25.87;59.51
66381;BME280;53177;52.648;1.214;2022-08-03T10:19:44;100736.00;;;25.98;56.83
66381;BME280;53177;52.648;1.214;2022-08-03T10:22:14;100726.84;;;25.13;59.14
66381;BME280;53177;52.648;1.214;2022-08-03T10:24:57;100728.34;;;24.62;60.26
66381;BME280;53177;52.648;1.214;2022-08-03T10:27:24;100731.56;;;25.13;61.53
66381;BME280;53177;52.648;1.214;2022-08-03T10:29:55;100729.28;;;25.95;57.61
66381;BME280;53177;52.648;1.214;2022-08-03T10:32:27;100717.47;;;26.55;55.13
66381;BME280;53177;52.648;1.214;2022-08-03T10:35:18;100712.72;;;26.87;55.42
66381;BME280;53177;52.648;1.214;2022-08-03T10:37:54;100722.09;;;27.91;52.77
66381;BME280;53177;52.648;1.214;2022-08-03T10:40:22;100726.72;;;27.49;52.42
66381;BME280;53177;52.648;1.214;2022-08-03T10:42:53;100719.25;;;27.14;52.78
66381;BME280;53177;52.648;1.214;2022-08-03T10:45:24;100712.72;;;27.38;53.68
66381;BME280;53177;52.648;1.214;2022-08-03T10:47:51;100725.41;;;26.91;55.45
66381;BME280;53177;52.648;1.214;2022-08-03T10:50:18;100722.84;;;27.34;52.81
66381;BME280;53177;52.648;1.214;2022-08-03T10:53:03;100724.94;;;27.05;52.34
66381;BME280;53177;52.648;1.214;2022-08-03T10:55:38;100711.16;;;26.70;54.41
66381;BME280;53177;52.648;1.214;2022-08-03T11:01:09;100714.16;;;26.65;54.25
66381;BME280;53177;52.648;1.214;2022-08-03T11:06:25;100711.91;;;26.23;55.84
66381;BME280;53177;52.648;1.214;2022-08-03T11:09:19;100715.28;;;26.32;56.57
66381;BME280;53177;52.648;1.214;2022-08-03T11:11:47;100711.34;;;26.45;56.09
66381;BME280;53177;52.648;1.214;2022-08-03T11:14:15;100711.03;;;26.19;57.78
66381;BME280;53177;52.648;1.214;2022-08-03T11:16:50;100704.81;;;26.22;58.04
66381;BME280;53177;52.648;1.214;2022-08-03T11:19:43;100707.09;;;27.34;54.04
66381;BME280;53177;52.648;1.214;2022-08-03T11:22:08;100697.41;;;27.60;52.03
66381;BME280;53177;52.648;1.214;2022-08-03T11:27:31;100707.72;;;27.82;51.38
66381;BME280;53177;52.648;1.214;2022-08-03T11:35:31;100704.41;;;28.38;50.94
66381;BME280;53177;52.648;1.214;2022-08-03T11:38:02;100695.72;;;28.63;48.69
66381;BME280;53177;52.648;1.214;2022-08-03T11:48:33;100696.88;;;28.35;47.89
66381;BME280;53177;52.648;1.214;2022-08-03T11:51:00;100701.16;;;27.90;49.68
66381;BME280;53177;52.648;1.214;2022-08-03T11:53:26;100705.00;;;28.05;53.04
66381;BME280;53177;52.648;1.214;2022-08-03T11:55:52;100695.56;;;27.67;50.59
66381;BME280;53177;52.648;1.214;2022-08-03T11:58:19;100704.72;;;27.52;50.64
66381;BME280;53177;52.648;1.214;2022-08-03T12:00:45;100700.78;;;27.53;51.97
66381;BME280;53177;52.648;1.214;2022-08-03T12:03:16;100696.69;;;27.82;50.87
66381;BME280;53177;52.648;1.214;2022-08-03T12:05:44;100696.22;;;28.00;49.76
66381;BME280;53177;52.648;1.214;2022-08-03T12:08:12;100689.13;;;28.44;48.51
66381;BME280;53177;52.648;1.214;2022-08-03T12:10:44;100697.38;;;28.67;48.44
66381;BME280;53177;52.648;1.214;2022-08-03T12:13:10;100699.34;;;28.93;47.70
66381;BME280;53177;52.648;1.214;2022-08-03T12:15:36;100701.38;;;28.96;46.69
66381;BME280;53177;52.648;1.214;2022-08-03T12:18:12;100700.56;;;28.24;49.70
66381;BME280;53177;52.648;1.214;2022-08-03T12:20:37;100699.66;;;28.16;49.58
66381;BME280;53177;52.648;1.214;2022-08-03T12:23:04;100697.13;;;28.07;47.33
66381;BME280;53177;52.648;1.214;2022-08-03T12:25:31;100697.63;;;29.42;46.13
66381;BME280;53177;52.648;1.214;2022-08-03T12:28:12;100698.38;;;29.35;46.05
66381;BME280;53177;52.648;1.214;2022-08-03T12:30:40;100704.97;;;29.27;45.50
66381;BME280;53177;52.648;1.214;2022-08-03T12:33:24;100698.78;;;29.07;47.43
66381;BME280;53177;52.648;1.214;2022-08-03T12:36:10;100705.38;;;29.56;45.55
66381;BME280;53177;52.648;1.214;2022-08-03T12:38:37;100701.13;;;29.65;47.34
66381;BME280;53177;52.648;1.214;2022-08-03T12:41:10;100706.16;;;29.26;45.44
66381;BME280;53177;52.648;1.214;2022-08-03T12:43:50;100691.97;;;29.31;46.80
66381;BME280;53177;52.648;1.214;2022-08-03T12:46:18;100691.72;;;28.60;48.58
66381;BME280;53177;52.648;1.214;2022-08-03T12:49:11;100701.81;;;28.99;47.05
66381;BME280;53177;52.648;1.214;2022-08-03T12:54:08;100697.75;;;28.92;46.48
66381;BME280;53177;52.648;1.214;2022-08-03T12:56:34;100690.31;;;28.70;47.48
66381;BME280;53177;52.648;1.214;2022-08-03T12:59:25;100699.31;;;27.98;47.62
66381;BME280;53177;52.648;1.214;2022-08-03T13:01:51;100706.78;;;27.75;48.51
66381;BME280;53177;52.648;1.214;2022-08-03T13:04:31;100704.53;;;28.26;47.72
66381;BME280;53177;52.648;1.214;2022-08-03T13:07:07;100689.91;;;27.60;49.89
66381;BME280;53177;52.648;1.214;2022-08-03T13:09:55;100706.31;;;27.92;48.29
66381;BME280;53177;52.648;1.214;2022-08-03T13:12:23;100698.78;;;28.12;49.31
66381;BME280;53177;52.648;1.214;2022-08-03T13:14:58;100693.06;;;28.01;49.94
66381;BME280;53177;52.648;1.214;2022-08-03T13:17:24;100690.25;;;27.98;48.67
66381;BME280;53177;52.648;1.214;2022-08-03T13:19:50;100689.31;;;27.90;49.00
66381;BME280;53177;52.648;1.214;2022-08-03T13:22:22;100689.13;;;27.60;49.82
66381;BME280;53177;52.648;1.214;2022-08-03T13:24:55;100686.94;;;27.69;49.81
66381;BME280;53177;52.648;1.214;2022-08-03T13:27:22;100699.09;;;27.68;49.61
66381;BME280;53177;52.648;1.214;2022-08-03T13:29:47;100690.81;;;27.68;49.80
66381;BME280;53177;52.648;1.214;2022-08-03T13:32:13;100692.03;;;28.32;49.79
66381;BME280;53177;52.648;1.214;2022-08-03T13:34:39;100689.22;;;28.52;48.22
66381;BME280;53177;52.648;1.214;2022-08-03T13:37:04;100690.94;;;28.14;48.82
66381;BME280;53177;52.648;1.214;2022-08-03T13:39:30;100693.25;;;28.12;49.12